Latest Coastal Weather Observations for Mallacoota

IDV60701

Issued at 11:02 am EDT Saturday 21 January 2017 (issued every 10 minutes, with the page automatically refreshed every 10 minutes)

About coastal observations | Map of coastal stations | Coastal observations for VIC | Marine services | Other Formats
Station Details ID: 084084 Name: MALLACOOTA Lat: -37.60 Lon: 149.73 Height: 22.0 m
Data from the previous 72 hours. | See also: Recent months at Mallacoota
Date/Time
EDT
Temp
°C
Wind Pressure Rain since
9am
mm
Weather Cloud Vis
km
Sea
Height
m
Swell
Dir  Spd
kts
Gust
kts
hPa Trend Height
m
Period
s
Dir
21/11:00am 18.3 SW 13 21 1012.6 - 0.0 - - - - - - -
21/10:30am 17.4 SW 11 18 1012.5 - 0.0 - - - - - - -
21/10:00am 16.9 WSW 13 23 1012.3 - 0.0 - - - - - - -
21/09:30am 16.3 WSW 9 16 1012.0 - 0.0 - - - - - - -
21/09:00am 15.7 WSW 9 17 1011.9 - 4.0 - - - - - - -
21/08:30am 15.5 WSW 11 18 1011.5 - 4.0 - - - - - - -
21/08:00am 15.0 WSW 9 17 1011.1 - 4.0 - - - - - - -
21/07:30am 14.8 W 11 17 1010.3 - 4.0 - - - - - - -
21/07:00am 14.2 WSW 8 12 1009.9 - 4.0 - - - - - - -
21/06:30am 14.4 W 11 17 1009.0 - 4.0 - - - - - - -
21/06:00am 14.8 W 9 15 1008.4 - 4.0 - - - - - - -
21/05:30am 15.0 WSW 9 12 1007.8 - 4.0 - - - - - - -
21/05:00am 15.3 WSW 9 18 1007.3 - 4.0 - - - - - - -
21/04:30am 15.6 W 8 14 1006.7 - 4.0 - - - - - - -
21/04:00am 15.9 WSW 9 13 1006.1 - 4.0 - - - - - - -
21/03:30am 16.0 WSW 10 18 1005.7 - 4.0 - - - - - - -
21/03:00am 16.6 SW 10 19 1005.4 - 4.0 - - - - - - -
21/02:30am 16.7 SW 13 23 1005.2 - 4.0 - - - - - - -
21/02:00am 16.7 SW 12 25 1005.0 - 4.0 - - - - - - -
21/01:30am 16.5 SW 12 23 1004.7 - 4.0 - - - - - - -
21/01:00am 16.7 WSW 12 23 1004.1 - 4.0 - - - - - - -
21/12:30am 16.9 WSW 13 22 1004.1 - 4.0 - - - - - - -
21/12:00am 17.1 SW 14 24 1004.1 - 4.0 - - - - - - -
 
Date/Time
EDT
Temp
°C
Wind Pressure Rain since
9am
mm
Weather Cloud Vis
km
Sea
Height
m
Swell
Dir  Spd
kts
Gust
kts
hPa Trend Height
m
Period
s
Dir
20/11:30pm 17.0 WSW 13 25 1003.9 - 4.0 - - - - - - -
20/11:00pm 16.9 SW 11 19 1003.6 - 4.0 - - - - - - -
20/10:30pm 17.1 SW 13 21 1003.0 - 4.0 - - - - - - -
20/10:05pm 17.2 SW 15 25 1002.6 - 4.0 - - - - - - -
20/10:00pm 17.1 SW 13 24 1002.5 - 4.0 - - - - - - -
20/09:32pm 16.7 SW 15 33 1002.1 - 4.0 - - - - - - -
20/09:30pm 16.6 SW 15 23 1002.2 - 4.0 - - - - - - -
20/09:00pm 17.4 SW 15 29 1001.5 - 4.0 - - - - - - -
20/08:39pm 17.5 SW 15 35 1000.7 - 4.0 - - - - - - -
20/08:30pm 17.5 SW 13 28 1000.5 - 4.0 - - - - - - -
20/08:00pm 17.1 SW 15 31 999.7 - 4.0 - - - - - - -
20/07:31pm 17.6 SW 15 29 998.6 - 3.6 - - - - - - -
20/07:30pm 17.9 SW 14 28 998.4 - 3.6 - - - - - - -
20/07:00pm 19.0 SW 17 34 997.4 - 3.6 - - - - - - -
20/06:30pm 19.7 SW 15 28 996.5 - 3.6 - - - - - - -
20/06:00pm 19.9 SW 15 31 995.6 - 3.6 - - - - - - -
20/05:30pm 20.6 SW 22 40 994.8 - 3.6 - - - - - - -
20/05:06pm 21.3 SW 17 37 994.2 - 3.6 - - - - - - -
20/05:00pm 21.6 SW 15 27 994.1 - 3.6 - - - - - - -
20/04:30pm 21.4 SW 19 36 994.1 - 3.6 - - - - - - -
20/04:00pm 21.3 SW 16 29 993.7 - 3.6 - - - - - - -
20/03:37pm 21.7 SW 18 39 993.4 - 3.6 - - - - - - -
20/03:30pm 21.3 SW 15 28 993.3 - 3.6 - - - - - - -
20/03:00pm 22.5 SW 15 31 992.8 - 3.6 - - - - - - -
20/02:47pm 22.7 SW 15 29 992.5 - 3.6 - - - - - - -
20/02:30pm 21.8 SW 9 17 992.4 - 3.6 - - - - - - -
20/02:00pm 21.9 SW 11 21 992.2 - 3.6 - - - - - - -
20/01:30pm 22.2 WNW 5 9 991.5 - 3.6 - - - - - - -
20/01:00pm 21.0 NW 6 12 991.6 - 3.6 - - - - - - -
20/12:30pm 20.5 WSW 5 10 991.7 - 2.8 - - - - - - -
20/12:00pm 21.2 NNW 8 14 991.0 - 2.4 - - - - - - -
20/11:30am 21.8 N 11 17 990.8 - 2.4 - - - - - - -
20/11:00am 19.7 N 10 16 990.9 - 2.4 - - - - - - -
20/10:30am 18.8 N 12 18 991.8 - 2.4 - - - - - - -
20/10:00am 18.0 N 8 11 993.3 - 2.0 - - - - - - -
20/09:30am 17.9 N 7 11 995.0 - 0.8 - - - - - - -
20/09:00am 17.7 NNW 7 11 995.9 - 3.2 Rain - - - - - -
20/08:30am 17.6 NNW 7 13 996.4 - 2.8 - - - - - - -
20/08:00am 17.5 NNW 10 14 997.6 - 2.0 - - - - - - -
20/07:30am 18.1 N 8 12 997.8 - 0.4 - - - - - - -
20/07:00am 19.3 N 13 20 998.3 - 0.0 - - - - - - -
20/06:30am 20.3 NNW 11 16 997.8 - 0.0 - - - - - - -
20/06:03am 20.6 N 15 25 996.4 - 0.0 - - - - - - -
20/06:00am 20.6 N 14 24 996.4 - 0.0 - - - - - - -
20/05:30am 20.8 N 15 25 996.1 - 0.0 - - - - - - -
20/05:27am 20.8 NNE 15 25 996.2 - 0.0 - - - - - - -
20/05:00am 20.9 NNE 13 24 997.2 - 0.0 - - - - - - -
20/04:39am 20.9 N 15 25 997.6 - 0.0 - - - - - - -
20/04:30am 20.8 N 14 24 997.9 - 0.0 - - - - - - -
20/04:02am 20.7 N 16 27 998.9 - 0.0 - - - - - - -
20/04:00am 20.7 N 16 23 998.9 - 0.0 - - - - - - -
20/03:44am 20.5 N 15 26 999.4 - 0.0 - - - - - - -
20/03:30am 20.3 N 13 20 999.6 - 0.0 - - - - - - -
20/03:07am 20.6 N 16 27 1000.3 - 0.0 - - - - - - -
20/03:00am 20.6 N 15 23 1000.7 - 0.0 - - - - - - -
20/02:30am 20.6 N 16 27 1000.7 - 0.0 - - - - - - -
20/02:00am 20.6 N 17 29 1001.2 - 0.0 - - - - - - -
20/01:42am 20.7 N 15 29 1001.5 - 0.0 - - - - - - -
20/01:30am 20.6 NNE 17 25 1002.0 - 0.0 - - - - - - -
20/01:11am 20.6 NNE 15 25 1002.7 - 0.0 - - - - - - -
20/01:00am 20.5 NNE 14 19 1003.5 - 0.0 - - - - - - -
20/12:30am 20.5 NNE 14 22 1004.5 - 0.0 - - - - - - -
20/12:00am 20.1 NNE 13 19 1005.4 - 0.0 - - - - - - -
 
Date/Time
EDT
Temp
°C
Wind Pressure Rain since
9am
mm
Weather Cloud Vis
km
Sea
Height
m
Swell
Dir  Spd
kts
Gust
kts
hPa Trend Height
m
Period
s
Dir
19/11:30pm 20.2 NNE 12 17 1006.1 - 0.0 - - - - - - -
19/11:00pm 20.7 NNE 13 19 1006.9 - 0.0 - - - - - - -
19/10:30pm 20.7 NNE 12 19 1007.2 - 0.0 - - - - - - -
19/10:00pm 20.4 NNE 11 19 1008.0 - 0.0 - - - - - - -
19/09:30pm 20.3 NNE 13 17 1008.2 - 0.0 - - - - - - -
19/09:00pm 20.4 NNE 14 22 1008.3 - 0.0 - - - - - - -
19/08:30pm 20.5 NNE 13 18 1008.8 - 0.0 - - - - - - -
19/08:00pm 20.5 NNE 14 21 1009.1 - 0.0 - - - - - - -
19/07:30pm 20.6 NNE 15 21 1009.0 - 0.0 - - - - - - -
19/07:00pm 20.8 NNE 15 21 1009.1 - 0.0 - - - - - - -
19/06:32pm 20.5 NNE 15 26 1009.0 - 0.0 - - - - - - -
19/06:30pm 20.5 NNE 15 22 1009.0 - 0.0 - - - - - - -
19/06:00pm 20.7 NE 13 20 1009.3 - 0.0 - - - - - - -
19/05:30pm 22.0 NE 13 21 1009.6 - 0.0 - - - - - - -
19/05:00pm 21.5 NE 13 25 1010.4 - 0.0 - - - - - - -
19/04:49pm 20.2 NE 15 25 1010.6 - 0.0 - - - - - - -
19/04:30pm 21.7 NE 12 19 1011.0 - 0.0 - - - - - - -
19/04:00pm 20.6 NE 17 24 1011.4 - 0.0 - - - - - - -
19/03:30pm 19.5 NE 19 25 1011.7 - 0.0 - - - - - - -
19/03:00pm 21.0 ENE 17 25 1012.0 - 0.0 - - - - - - -
19/02:30pm 21.0 ENE 17 23 1012.5 - 0.0 - - - - - - -
19/02:00pm 20.6 E 15 22 1012.9 - 0.0 - - - - - - -
19/01:30pm 21.0 E 17 21 1013.2 - 0.0 - - - - - - -
19/01:00pm 21.3 E 14 18 1013.6 - 0.0 - - - - - - -
19/12:30pm 21.4 E 12 16 1014.0 - 0.0 - - - - - - -
19/12:00pm 21.0 E 7 10 1014.6 - 0.0 - - - - - - -
19/11:30am 20.0 E 6 8 1014.9 - 0.0 - - - - - - -
19/11:00am 19.4 E 5 7 1015.2 - 0.0 - - - - - - -
19/10:30am 18.6 SE 6 7 1015.4 - 0.0 - - - - - - -
19/10:00am 19.0 E 5 7 1015.6 - 0.0 - - - - - - -
19/09:30am 18.8 SE 5 7 1015.7 - 0.0 - - - - - - -
19/09:00am 17.9 SSE 5 6 1015.8 - 0.0 - - - - - - -
19/08:30am 16.6 WNW 4 6 1016.0 - 0.0 - - - - - - -
19/08:00am 14.6 WNW 5 7 1016.0 - 0.0 - - - - - - -
19/07:30am 13.1 WNW 5 7 1016.0 - 0.0 - - - - - - -
19/07:00am 11.4 NW 7 8 1015.7 - 0.0 - - - - - - -
19/06:30am 10.6 WNW 6 7 1015.6 - 0.0 - - - - - - -
19/06:00am 10.7 W 5 7 1015.5 - 0.0 - - - - - - -
19/05:30am 10.9 W 5 6 1015.3 - 0.0 - - - - - - -
19/05:00am 11.2 WNW 5 8 1015.2 - 0.0 - - - - - - -
19/04:30am 11.6 WNW 6 9 1014.9 - 0.0 - - - - - - -
19/04:00am 11.6 WNW 6 9 1015.1 - 0.0 - - - - - - -
19/03:30am 11.2 WNW 4 6 1015.5 - 0.0 - - - - - - -
19/03:00am 11.4 NW 5 7 1015.7 - 0.0 - - - - - - -
19/02:30am 11.7 NW 5 7 1016.0 - 0.0 - - - - - - -
19/02:00am 12.6 WNW 6 9 1016.2 - 0.0 - - - - - - -
19/01:30am 12.6 WNW 6 9 1016.4 - 0.0 - - - - - - -
19/01:00am 12.5 W 6 9 1016.4 - 0.0 - - - - - - -
19/12:30am 12.7 WNW 6 8 1016.5 - 0.0 - - - - - - -
19/12:00am 13.0 W 6 8 1016.7 - 0.0 - - - - - - -
 
Date/Time
EDT
Temp
°C
Wind Pressure Rain since
9am
mm
Weather Cloud Vis
km
Sea
Height
m
Swell
Dir  Spd
kts
Gust
kts
hPa Trend Height
m
Period
s
Dir
18/11:30pm 13.2 WNW 5 6 1016.7 - 0.0 - - - - - - -
18/11:00pm 13.9 W 4 6 1016.7 - 0.0 - - - - - - -
18/10:30pm 14.5 WSW 5 6 1016.5 - 0.0 - - - - - - -
18/10:00pm 15.0 WSW 4 6 1016.4 - 0.0 - - - - - - -
18/09:30pm 15.6 SW 7 13 1016.1 - 0.0 - - - - - - -
18/09:00pm 15.9 SW 8 14 1015.4 - 0.0 - - - - - - -
18/08:30pm 16.2 SSW 11 18 1014.9 - 0.0 - - - - - - -
18/08:00pm 16.5 SSW 12 17 1014.4 - 0.0 - - - - - - -
18/07:30pm 17.0 SSW 14 22 1013.9 - 0.0 - - - - - - -
18/07:00pm 17.8 SSW 15 23 1013.6 - 0.0 - - - - - - -
18/06:30pm 18.5 SSW 15 24 1013.2 - 0.0 - - - - - - -
18/06:00pm 18.9 SSW 15 26 1012.9 - 0.0 - - - - - - -
18/05:43pm 19.0 SSW 15 28 1012.6 - 0.0 - - - - - - -
18/05:30pm 20.2 SSW 14 24 1012.4 - 0.0 - - - - - - -
18/05:00pm 19.9 SSW 16 28 1012.3 - 0.0 - - - - - - -
18/04:30pm 20.5 SSW 15 32 1012.2 - 0.0 - - - - - - -
18/04:00pm 20.3 SSW 16 28 1011.9 - 0.0 - - - - - - -
18/03:30pm 20.8 SW 17 30 1011.8 - 0.0 - - - - - - -
18/03:00pm 20.7 SW 17 27 1011.5 - 0.0 - - - - - - -
18/02:30pm 20.5 SW 16 35 1011.5 - 0.0 - - - - - - -
18/02:00pm 19.9 SW 16 26 1011.4 - 0.0 - - - - - - -
18/01:30pm 19.2 SW 16 32 1011.4 - 0.0 - - - - - - -
18/01:07pm 18.8 SW 15 25 1011.3 - 0.0 - - - - - - -
18/01:00pm 19.2 SW 13 25 1011.1 - 0.0 - - - - - - -
18/12:30pm 18.7 SW 15 24 1010.9 - 0.0 - - - - - - -
18/12:00pm 18.0 SW 13 24 1010.9 - 0.0 - - - - - - -
18/11:30am 16.9 SW 12 20 1010.9 - 0.0 - - - - - - -

Other Formats:

Comma delimited format used in spreadsheet applications
http://www.bom.gov.au/fwo/IDV60701/IDV60701.94935.axf

JavaScript Object Notation format (JSON) in row-major order
http://www.bom.gov.au/fwo/IDV60701/IDV60701.94935.json